Racecast

Jillian Sutter

Temperance Bedford (MI) · 12 · SECMI D1MONROE · Compare head to head

Athlete rating 81.3 2017 XC season
Best race 110.4 XC
Races 70
Seasons 6 2012 — 2017

RankedNation #143291·MI #6954·MI D1 #3737·SEC #334·Team #127 ?

Rating scale ?
Speed rating — all races

Cross Country

XC speed rating

2017 XC 79.8

Temperance Bedford (MI) · Grade 12

Date Meet Event Result Place Rating Difficulty PR/SR Flags
2017-10-28 Lake Erie Metro Park OFFICIAL 5000m 31:44 128th · 22nd on team 78.4 +0.007
2017-10-19 Hudson Mills Metropark - OFFICIAL 5000m 30:39 182nd · 16th on team 80.8 -0.006
2017-10-10 Indian Creek OFFICIAL 5000m 31:23.7 29th · 24th on team 79.4 +0.004 CSR
2017-09-30 Lake Erie Metro Park OFFICIAL 5000m 29:03.9 65th · 20th on team 85.2 +0.007 SR CSR RSR
2017-09-22 Ella Sharp Park OFFICIAL 5000m 31:55.8 144th · 19th on team 79.2 -0.001 ★CR CSR
2017-09-12 Hudson Mills Metropark - OFFICIAL 5000m 30:13.6 153rd · 17th on team 81.6 -0.006 SR CSR RSR
2017-09-09 Hedges Boyer Park 5000m 32:22.1 407th · 16th on team 76.3 -0.003 CSR
2017-08-26 Boy Scout Camp Lakota 5000m 32:17.1 186th · 27th on team 77.6 +0.014 SR CSR RSR

2016 XC 88.6

Temperance Bedford (MI) · Grade 11

Date Meet Event Result Place Rating Difficulty PR/SR Flags
2016-10-20 Hudson Mills Metropark - OFFICIAL 5000m 27:21.7 136th · 15th on team 89.7 -0.006 SR CSR
2016-10-15 Hudson Mills Metropark - OFFICIAL 5000m 27:39.8 179th · 18th on team 89.7 -0.006 CSR
2016-10-08 Portage West MS 5000m 27:26 440th · 14th on team 90.1 -0.003 SR CSR RSR
2016-10-01 Pearson's Metro Park 5000m 27:30.3 82nd · 11th on team 90.0 +0.001 SR CSR RSR
2016-09-27 Pioneer HS 5000m 28:30 87th · 11th on team 89.3 +0.018 ★CR CSR RSR
2016-09-13 Heritage Park (Adrian) OFFICIAL 5000m 30:59.7 136th · 11th on team 83.1 +0.035 CSR
2016-09-10 Hedges Boyer Park 5000m 28:11.1 468th · 5th on team 88.1 -0.003 ★CR SR CSR RSR

2015 XC 92.5

Temperance Bedford (MI) · Grade 10

Date Meet Event Result Place Rating Difficulty PR/SR Flags
2015-10-31 Lake Erie Metro Park OFFICIAL 5000m 25:27.4 114th · 19th on team 97.4 +0.007 ★PR ★CR SR CSR RSR
2015-10-22 Hudson Mills Metropark - OFFICIAL 5000m 25:45.3 122nd · 18th on team 95.2 -0.006
2015-10-17 Hudson Mills Metropark - OFFICIAL 5000m 25:29.3 160th · 14th on team 96.0 -0.006 PR ★CR SR CSR RSR
2015-10-03 Pearson's Metro Park 5000m 25:48.6 25th · 25th on team 95.7 +0.001 ★CR SR CSR RSR
2015-09-29 Indian Creek OFFICIAL 5000m 27:09.5 94th · 14th on team 91.2 +0.004 ★CR CSR
2015-09-19 Springfield Oaks County Park OFFICIAL 5000m 26:25 36th · 11th on team 95.5 +0.019 ★CR SR CSR RSR
2015-09-10 Munson Park 5000m 28:47.1 125th · 15th on team 86.5 +0.007 ★CR CSR
2015-08-29 Boy Scout Camp Lakota 5000m 28:16.65 149th · 21st on team 87.9 +0.014 ★CR SR CSR RSR
2015-08-27 Heritage Park (Adrian) OFFICIAL 5000m 28:47.1 92nd · 22nd on team 87.2 +0.035 ★CR SR CSR RSR

2014 XC 87.5

Temperance Bedford (MI) · Grade 9

Date Meet Event Result Place Rating Difficulty PR/SR Flags
2014-10-25 Lake Erie Metro Park OFFICIAL 5000m 29:02.4 138th · 24th on team 86.0 +0.007 CR CSR
2014-10-04 Portage West MS 5000m 25:43 201st · 15th on team 95.5 -0.003 PR ★CR SR CSR RSR
2014-09-23 Huron Meadows Metropark OFFICIAL 5000m 28:24.5 120th · 18th on team 87.5 -0.004 PR ★CR SR CSR RSR
2014-09-09 Hudson Mills Metropark - OFFICIAL 5000m 28:30.7 129th · 15th on team 86.6 -0.006 PR CR SR CSR RSR
2014-09-06 Hedges Boyer Park 5000m 28:37 469th · 16th on team 85.5 -0.003 PR CR SR CSR RSR
2014-08-28 Heritage Park (Adrian) OFFICIAL 5000m 30:21.6 61st · 23rd on team 83.7 +0.035 PR CR SR CSR RSR

2013 XC 101.9

Temperance Bedford (MI) · Grade 8

Date Meet Event Result Place Rating Difficulty PR/SR Flags
2013-10-19 Hudson Mills Metropark - OFFICIAL 2253m 14:41.1 104th · 7th on team 77.9 ★PR ★CR SR CSR
2013-10-09 Heritage Park (Adrian) OFFICIAL 3200m 15:17 48th · 8th on team 110.1 +0.014 ★CR CSR
2013-09-28 Pearson's Metro Park 3200m 15:10 50th · 6th on team 110.4 -0.005 ★PR ★CR ★R SR CSR RSR
2013-09-13 Forest Akers East Golf Course 3200m 15:16 122nd · 6th on team 108.6 +0.012 PR ★CR R SR CSR RSR
2013-09-11 Munson Park 3200m 16:24 25th · 4th on team 102.6 +0.000 PR ★CR SR CSR RSR

2012 XC 84.6

Temperance Bedford (MI) · Grade 7

Date Meet Event Result Place Rating Difficulty PR/SR Flags
2012-10-20 Hudson Mills Metropark - OFFICIAL 3000m 14:49.7 24th · 1st on team 106.4 -0.022 ★PR ★CR R SR CSR RSR
2012-10-06 Portage West MS 1931m 12:10.3 49th · 8th on team 79.0 ★PR ★CR SR CSR
2012-09-29 Pearson's Metro Park 2253m 16:00.3 84th · 8th on team 71.8 PR ★CR SR CSR
2012-09-26 Hudson Mills Metropark - OFFICIAL 2655m 15:50.3 51st · 9th on team 85.4 ★PR ★CR SR CSR
2012-09-12 Tecumseh HS 3218m 17:31.2 44th · 7th on team 56.9 -0.008 ★PR ★CR SR CSR
2012-09-08 Tiffin 3200m 16:26.7 9th · 5th on team 102.5 -0.006 PR ★CR R SR CSR RSR
2012-08-27 Race Way Park 3200m 18:30 10th · 10th on team 90.4 +0.007 PR ★CR R SR CSR RSR

Track & Field

TF speed rating

2016 TF 91.0

Temperance Bedford (MI) · Grade 10

Date Meet Event Result Place Rating Difficulty PR/SR Flags
2016-05-03 SEC Tri: Huron/Skyline @ Bedford 800m 3:24.87 18th · 10th on team 89.4 -0.026
2016-04-26 Bedford @ Monroe 400m 1:21.94 10th · 8th on team -0.022 SR
2016-04-26 Bedford @ Monroe 800m 3:26.7 14th · 10th on team 89.6 -0.022
2016-04-19 Saline @ Bedford 800m 3:19.04 19th · 10th on team 92.9 -0.026 ★PR SR RSR
2016-04-12 SEC: Bedford @ Pioneer 800m 3:21.98 14th · 9th on team 92.2 -0.017 PR SR RSR

2015 TF 93.7

Temperance Bedford (MI) · Grade 9

Date Meet Event Result Place Rating Difficulty PR/SR Flags
2015-04-28 SEC: Skyline @ Bedford 1600m 7:05 12th · 7th on team 97.8 -0.026 SR RSR
2015-04-21 SEC: Bedford @ Pioneer 400m 1:19.82 13th · 9th on team -0.017 ★PR SR
2015-04-21 SEC: Bedford @ Pioneer 800m 3:29.85 20th · 15th on team 89.7 -0.017 PR SR RSR

2014 TF 91.7

Temperance Bedford (MI) · Grade 8

Date Meet Event Result Place Rating Difficulty PR/SR Flags
2014-05-21 Bedford vs Chelsea 200mh 38.14 2nd · 2nd on team -0.022 ★PR SR
2014-05-21 Bedford vs Chelsea 55mh 11.34 3rd · 3rd on team -0.022
2014-05-19 Bedford vs Dexter 200mh 39.54 5th · 5th on team -0.026
2014-05-19 Bedford vs Dexter 55mh 11.94 4th · 4th on team -0.026
2014-05-08 Bedford vs Adrian 55mh 10.84 2nd · 2nd on team -0.026 ★PR SR
2014-05-08 Bedford vs Adrian 200mh 38.84 6th · 6th on team -0.026 PR SR
2014-05-05 Bedford vs Ypsilanti 200mh 39.34 6th · 6th on team -0.021
2014-05-05 Bedford vs Ypsilanti 55mh 11:02.24 7th · 7th on team -0.021
2014-04-28 Bedford vs Monroe 200mh 39.34 5th · 5th on team -0.026
2014-04-28 Bedford vs Monroe 55mh 11.24 3rd · 3rd on team -0.026
2014-04-16 Bedford TT 1600m 8:09 31st · 31st on team 92.4 -0.026 SR RSR
2014-04-16 Bedford TT 400m 1:25.14 26th · 26th on team -0.026 PR SR
2014-04-16 Bedford TT 200m 34.24 19th · 19th on team -0.026 ★PR SR
2014-04-16 Bedford TT 100m 16.24 42nd · 42nd on team -0.026 ★PR SR
2014-04-16 Bedford TT 800m 3:42 38th · 38th on team 90.9 -0.026 PR SR
2014-04-14 Bedford vs Tecumseh 55mh 11.04 2nd · 2nd on team -0.026 PR SR
2014-04-14 Bedford vs Tecumseh 200mh 39.14 4th · 4th on team -0.026 PR SR

2013 TF 105.2

Temperance Bedford (MI) · Grade 7

Date Meet Event Result Place Rating Difficulty PR/SR Flags
2013-05-10 Saline MS Hornet Relays 1600m 7:11.59 13th · 1st on team 103.6 -0.033
2013-05-09 Bedford vs Lincoln 55mh 11.54 3rd · 3rd on team -0.026 PR SR
2013-05-09 Bedford vs Lincoln 1600m 7:00 7th · 7th on team 106.9 -0.026 ★PR R SR RSR